createdAt,value
2023-03-23T00:03:21.946Z,15.10
2023-03-23T00:07:22.146Z,15.05
2023-03-23T00:11:22.743Z,14.97
2023-03-23T00:15:22.522Z,14.94
2023-03-23T00:19:23.275Z,14.91
2023-03-23T00:23:22.410Z,14.86
2023-03-23T00:27:22.518Z,14.86
2023-03-23T00:31:22.363Z,14.80
2023-03-23T00:35:22.380Z,14.81
2023-03-23T00:39:22.520Z,14.74
2023-03-23T00:43:22.727Z,14.70
2023-03-23T00:47:23.284Z,14.65
2023-03-23T00:51:23.277Z,14.64
2023-03-23T00:55:22.950Z,14.63
2023-03-23T00:59:23.264Z,14.62
2023-03-23T01:03:23.062Z,14.61
2023-03-23T01:07:23.084Z,14.56
2023-03-23T01:11:23.062Z,14.54
2023-03-23T01:15:23.271Z,14.59
2023-03-23T01:19:23.082Z,14.54
2023-03-23T01:23:23.095Z,14.56
2023-03-23T01:27:23.302Z,14.54
2023-03-23T01:31:23.281Z,14.48
2023-03-23T01:35:23.174Z,14.16
2023-03-23T01:39:23.286Z,14.30
2023-03-23T01:43:23.389Z,14.33
2023-03-23T01:47:23.812Z,14.29
2023-03-23T01:51:28.141Z,14.31
2023-03-23T01:55:24.382Z,14.28
2023-03-23T01:59:23.582Z,14.29
2023-03-23T02:03:23.722Z,14.25
2023-03-23T02:07:23.807Z,14.21
2023-03-23T02:11:24.383Z,14.17
2023-03-23T02:15:24.174Z,14.14
2023-03-23T02:19:24.804Z,14.16
2023-03-23T02:23:24.449Z,14.16
2023-03-23T02:27:24.793Z,14.12
2023-03-23T02:31:25.274Z,14.09
2023-03-23T02:35:24.938Z,14.04
2023-03-23T02:39:24.836Z,14.00
2023-03-23T02:43:24.865Z,13.96
2023-03-23T02:47:25.925Z,13.98
2023-03-23T02:51:24.811Z,13.96
2023-03-23T02:55:24.977Z,13.91
2023-03-23T02:59:24.933Z,13.88
2023-03-23T03:03:25.306Z,13.84
2023-03-23T03:07:24.808Z,13.84
2023-03-23T03:11:24.730Z,13.86
2023-03-23T03:15:24.834Z,13.83
2023-03-23T03:19:24.702Z,13.81
2023-03-23T03:23:24.828Z,13.77
2023-03-23T03:27:24.860Z,13.72
2023-03-23T03:31:24.561Z,13.70
2023-03-23T03:35:24.533Z,13.67
2023-03-23T03:39:24.537Z,13.65
2023-03-23T03:43:24.470Z,13.65
2023-03-23T03:47:24.861Z,13.66
2023-03-23T03:51:25.364Z,13.63
2023-03-23T03:55:24.828Z,13.62
2023-03-23T03:59:24.493Z,13.54
2023-03-23T04:03:24.834Z,13.56
2023-03-23T04:07:24.872Z,13.60
2023-03-23T04:11:32.433Z,13.57
2023-03-23T04:15:25.418Z,13.53
2023-03-23T04:19:24.847Z,13.50
2023-03-23T04:23:24.351Z,13.44
2023-03-23T04:27:24.305Z,13.47
2023-03-23T04:31:24.280Z,13.46
2023-03-23T04:35:24.310Z,13.46
2023-03-23T04:39:24.347Z,13.41
2023-03-23T04:43:24.550Z,13.39
2023-03-23T04:47:24.618Z,13.37
2023-03-23T04:51:24.617Z,13.33
2023-03-23T04:55:24.692Z,13.31
2023-03-23T04:59:24.785Z,13.27
2023-03-23T05:03:24.834Z,13.23
2023-03-23T05:07:24.918Z,13.22
2023-03-23T05:11:25.005Z,13.21
2023-03-23T05:15:25.131Z,13.15
2023-03-23T05:19:25.107Z,13.12
2023-03-23T05:23:25.079Z,13.12
2023-03-23T05:27:25.050Z,13.11
2023-03-23T05:31:24.975Z,13.06
2023-03-23T05:35:25.063Z,13.05
2023-03-23T05:39:25.027Z,13.04
2023-03-23T05:43:24.889Z,12.97
2023-03-23T05:47:24.889Z,12.98
2023-03-23T05:51:24.812Z,13.02
2023-03-23T05:55:24.777Z,13.04
2023-03-23T05:59:24.768Z,13.02
2023-03-23T06:03:24.863Z,13.04
2023-03-23T06:07:25.014Z,13.10
2023-03-23T06:11:25.115Z,13.16
2023-03-23T06:15:25.302Z,13.20
2023-03-23T06:19:25.418Z,13.26
2023-03-23T06:23:25.541Z,13.32
2023-03-23T06:27:25.615Z,13.36
2023-03-23T06:31:25.710Z,13.37
2023-03-23T06:35:25.768Z,13.37
2023-03-23T06:39:25.824Z,13.43
2023-03-23T06:43:26.016Z,13.36
2023-03-23T06:47:26.073Z,13.38
2023-03-23T06:51:26.081Z,13.42
2023-03-23T06:55:26.117Z,13.38
2023-03-23T06:59:26.187Z,13.45
2023-03-23T07:03:26.372Z,13.49
2023-03-23T07:07:26.408Z,13.53
2023-03-23T07:11:26.581Z,13.54
2023-03-23T07:15:26.592Z,13.51
2023-03-23T07:19:26.537Z,13.55
2023-03-23T07:25:33.920Z,13.47
2023-03-23T07:29:33.812Z,13.55
2023-03-23T07:33:34.002Z,13.57
2023-03-23T07:37:33.914Z,13.49
2023-03-23T07:41:33.753Z,13.62
2023-03-23T07:45:33.667Z,13.62
2023-03-23T07:49:33.733Z,13.72
2023-03-23T07:53:33.567Z,13.72
2023-03-23T07:57:33.625Z,13.78
2023-03-23T08:01:33.769Z,13.87
2023-03-23T08:05:33.528Z,14.04
2023-03-23T08:09:33.479Z,14.14
2023-03-23T08:13:33.512Z,14.34
2023-03-23T08:17:33.435Z,14.49
2023-03-23T08:21:33.407Z,14.56
2023-03-23T08:25:33.388Z,14.59
2023-03-23T08:29:33.323Z,14.50
2023-03-23T08:33:33.294Z,14.60
2023-03-23T08:37:33.223Z,14.62
2023-03-23T08:41:33.176Z,14.66
2023-03-23T08:45:33.298Z,14.78
2023-03-23T08:49:33.294Z,14.88
2023-03-23T08:53:33.138Z,14.86
2023-03-23T08:57:33.138Z,14.95
2023-03-23T09:01:33.249Z,15.04
2023-03-23T09:05:33.412Z,15.10
2023-03-23T09:09:33.487Z,15.05
2023-03-23T09:13:33.618Z,15.08
2023-03-23T09:17:33.698Z,15.23
2023-03-23T09:21:33.615Z,15.32
2023-03-23T09:25:33.644Z,15.37
2023-03-23T09:29:33.849Z,15.51
2023-03-23T09:33:33.873Z,15.22
2023-03-23T09:37:33.866Z,15.33
2023-03-23T09:41:33.806Z,15.59
2023-03-23T09:45:33.845Z,15.67
2023-03-23T09:49:33.797Z,15.68
2023-03-23T09:53:34.738Z,15.89
2023-03-23T09:57:33.655Z,15.89
2023-03-23T10:01:33.624Z,15.97
2023-03-23T10:05:33.612Z,16.06
2023-03-23T10:09:33.686Z,16.26
2023-03-23T10:13:33.784Z,16.41
2023-03-23T10:17:33.723Z,16.38
2023-03-23T10:21:33.813Z,16.40
2023-03-23T10:25:33.996Z,16.48
2023-03-23T10:29:34.095Z,16.66
2023-03-23T10:33:34.396Z,16.71
2023-03-23T10:37:34.415Z,16.81
2023-03-23T10:41:34.208Z,16.67
2023-03-23T10:45:34.248Z,16.83
2023-03-23T10:49:34.262Z,17.04
2023-03-23T10:53:34.466Z,17.31
2023-03-23T10:57:34.696Z,17.53
2023-03-23T11:01:34.750Z,17.63
2023-03-23T11:05:34.843Z,17.67
2023-03-23T11:09:34.946Z,17.84
2023-03-23T11:13:34.827Z,17.57
2023-03-23T11:17:34.851Z,17.64
2023-03-23T11:21:34.963Z,17.80
2023-03-23T11:25:35.143Z,17.75
2023-03-23T11:29:35.269Z,17.87
2023-03-23T11:33:35.611Z,17.69
2023-03-23T11:37:35.356Z,17.56
2023-03-23T11:41:35.644Z,17.69
2023-03-23T11:45:35.637Z,17.70
2023-03-23T11:49:35.507Z,17.64
2023-03-23T11:53:35.529Z,17.74
2023-03-23T11:57:35.521Z,17.73
2023-03-23T12:01:35.542Z,17.76
2023-03-23T12:05:35.516Z,17.84
2023-03-23T12:09:35.488Z,18.05
2023-03-23T12:13:35.506Z,18.16
2023-03-23T12:17:35.469Z,18.05
2023-03-23T12:21:35.473Z,18.11
2023-03-23T12:25:35.310Z,18.16
2023-03-23T12:29:35.275Z,18.28
2023-03-23T12:33:35.231Z,18.21
2023-03-23T12:37:35.219Z,18.35
2023-03-23T12:41:35.192Z,18.42
2023-03-23T12:45:35.101Z,18.51
2023-03-23T12:49:35.166Z,18.59
2023-03-23T12:53:35.079Z,18.64
2023-03-23T12:57:35.052Z,18.72
2023-03-23T13:05:45.102Z,18.90
2023-03-23T13:09:45.035Z,18.96
2023-03-23T13:13:48.987Z,19.10
2023-03-23T13:17:45.979Z,19.32
2023-03-23T13:21:51.159Z,19.51
2023-03-23T13:25:45.952Z,19.59
2023-03-23T13:29:44.900Z,19.67
2023-03-23T13:33:45.021Z,19.65
2023-03-23T13:37:44.821Z,19.64
2023-03-23T13:41:44.829Z,19.67
2023-03-23T13:45:45.278Z,19.69
2023-03-23T13:49:44.981Z,19.76
2023-03-23T13:53:44.948Z,19.75
2023-03-23T13:57:59.160Z,19.78
2023-03-23T14:01:54.875Z,19.75
2023-03-23T14:05:44.941Z,19.68
2023-03-23T14:09:44.803Z,19.61
2023-03-23T14:13:44.771Z,19.62
2023-03-23T14:17:44.732Z,19.57
2023-03-23T14:21:44.721Z,19.56
2023-03-23T14:25:44.973Z,19.59
2023-03-23T14:29:44.614Z,19.63
2023-03-23T14:33:44.604Z,19.61
2023-03-23T14:37:44.523Z,19.54
2023-03-23T14:41:44.513Z,19.65
2023-03-23T14:45:44.635Z,19.66
2023-03-23T14:49:44.451Z,19.75
2023-03-23T14:53:44.374Z,19.76
2023-03-23T14:57:44.393Z,19.74
2023-03-23T15:01:44.275Z,19.73
2023-03-23T15:05:45.101Z,19.66
2023-03-23T15:09:44.254Z,19.63
2023-03-23T15:13:44.201Z,19.55
2023-03-23T15:17:44.386Z,19.50
2023-03-23T15:21:44.206Z,19.45
2023-03-23T15:25:44.526Z,19.40
2023-03-23T15:29:44.314Z,19.46
2023-03-23T15:33:44.399Z,19.53
2023-03-23T15:37:44.312Z,19.57
2023-03-23T15:41:56.440Z,19.61
2023-03-23T15:45:55.955Z,19.58
2023-03-23T15:49:44.421Z,19.46
2023-03-23T15:53:44.433Z,19.41
2023-03-23T16:01:54.670Z,19.25
2023-03-23T16:05:54.623Z,19.24
2023-03-23T16:09:54.686Z,19.24
2023-03-23T16:13:54.624Z,19.22
2023-03-23T16:17:54.235Z,19.26
2023-03-23T16:21:54.698Z,19.34
2023-03-23T16:25:54.296Z,19.28
2023-03-23T16:30:03.901Z,19.27
2023-03-23T16:33:55.195Z,19.20
2023-03-23T16:38:07.086Z,19.23
2023-03-23T16:41:55.636Z,19.17
2023-03-23T16:45:54.249Z,19.09
2023-03-23T16:49:54.650Z,19.08
2023-03-23T16:53:54.644Z,19.04
2023-03-23T16:58:05.233Z,18.98
2023-03-23T17:01:55.755Z,19.06
2023-03-23T17:05:54.349Z,18.83
2023-03-23T17:09:54.604Z,18.79
2023-03-23T17:13:54.910Z,18.82
2023-03-23T17:17:55.464Z,18.84
2023-03-23T17:21:55.192Z,18.78
2023-03-23T17:25:55.361Z,18.84
2023-03-23T17:29:55.759Z,18.90
2023-03-23T17:33:55.568Z,18.77
2023-03-23T17:37:55.625Z,18.74
2023-03-23T17:41:56.217Z,18.72
2023-03-23T17:45:55.797Z,18.78
2023-03-23T17:49:55.682Z,18.76
2023-03-23T17:53:55.716Z,18.82
2023-03-23T17:57:56.133Z,18.92
2023-03-23T18:01:55.830Z,18.91
2023-03-23T18:05:56.314Z,18.93
2023-03-23T18:09:56.030Z,18.96
2023-03-23T18:13:56.001Z,18.87
2023-03-23T18:21:45.993Z,18.77
2023-03-23T18:25:45.506Z,18.77
2023-03-23T18:29:45.136Z,18.72
2023-03-23T18:33:45.075Z,18.68
2023-03-23T18:37:45.423Z,18.76
2023-03-23T18:41:44.967Z,18.78
2023-03-23T18:45:45.882Z,18.77
2023-03-23T18:49:44.915Z,18.76
2023-03-23T18:53:44.926Z,18.71
2023-03-23T18:57:44.907Z,18.73
2023-03-23T19:01:45.038Z,18.70
2023-03-23T19:05:45.126Z,18.68
2023-03-23T19:09:44.798Z,18.61
2023-03-23T19:13:54.298Z,18.59
2023-03-23T19:17:46.086Z,18.54
2023-03-23T19:21:47.067Z,18.52
2023-03-23T19:25:45.013Z,18.47
2023-03-23T19:29:45.462Z,18.43
2023-03-23T19:33:44.934Z,18.40
2023-03-23T19:37:45.622Z,18.37
2023-03-23T19:41:45.892Z,18.35
2023-03-23T19:45:45.321Z,18.35
2023-03-23T19:49:45.447Z,18.33
2023-03-23T19:53:45.180Z,18.27
2023-03-23T19:57:45.416Z,18.26
2023-03-23T20:01:45.343Z,18.24
2023-03-23T20:05:45.761Z,18.22
2023-03-23T20:09:45.910Z,18.19
2023-03-23T20:13:45.607Z,18.18
2023-03-23T20:17:46.196Z,18.16
2023-03-23T20:21:45.870Z,18.12
2023-03-23T20:25:46.650Z,18.11
2023-03-23T20:29:46.151Z,18.13
2023-03-23T20:33:46.588Z,18.04
2023-03-23T20:37:47.325Z,18.00
2023-03-23T20:41:46.447Z,17.99
2023-03-23T20:45:47.359Z,17.95
2023-03-23T20:49:53.755Z,17.91
2023-03-23T20:53:47.958Z,17.88
2023-03-23T20:57:47.092Z,17.86
2023-03-23T21:01:46.904Z,17.83
2023-03-23T21:05:46.896Z,17.76
2023-03-23T21:09:46.852Z,17.71
2023-03-23T21:13:46.788Z,17.69
2023-03-23T21:17:47.065Z,17.66
2023-03-23T21:21:56.653Z,17.66
2023-03-23T21:25:47.982Z,17.64
2023-03-23T21:29:46.656Z,17.61
2023-03-23T21:33:46.997Z,17.61
2023-03-23T21:37:46.509Z,17.56
2023-03-23T21:41:46.977Z,17.55
2023-03-23T21:45:46.945Z,17.49
2023-03-23T21:49:46.510Z,17.45
2023-03-23T21:53:46.577Z,17.36
2023-03-23T21:57:46.454Z,17.34
2023-03-23T22:01:46.517Z,17.33
2023-03-23T22:05:46.457Z,17.26
2023-03-23T22:09:46.528Z,17.27
2023-03-23T22:13:46.961Z,17.27
2023-03-23T22:17:46.689Z,17.30
2023-03-23T22:21:46.859Z,17.22
2023-03-23T22:25:46.809Z,17.17
2023-03-23T22:29:46.978Z,17.01
2023-03-23T22:33:46.929Z,17.05
2023-03-23T22:37:47.092Z,16.98
2023-03-23T22:41:47.169Z,16.96
2023-03-23T22:45:47.548Z,16.93
2023-03-23T22:49:47.490Z,16.91
2023-03-23T22:53:47.556Z,16.91
2023-03-23T22:57:47.984Z,16.91
2023-03-23T23:01:47.904Z,16.92
2023-03-23T23:05:48.217Z,16.85
2023-03-23T23:09:48.373Z,16.84
2023-03-23T23:13:48.637Z,16.76
2023-03-23T23:17:48.632Z,16.82
2023-03-23T23:21:48.470Z,16.74
2023-03-23T23:25:48.776Z,16.71
2023-03-23T23:29:48.367Z,16.80
2023-03-23T23:33:48.350Z,16.80
2023-03-23T23:37:48.440Z,16.80
2023-03-23T23:41:48.296Z,16.79
2023-03-23T23:45:48.292Z,16.65
2023-03-23T23:49:48.221Z,16.57
2023-03-23T23:53:48.386Z,16.61
2023-03-23T23:57:48.601Z,16.48
